createdAt,value
2017-04-29T00:00:28.194Z,11.57
2017-04-29T00:01:08.751Z,11.55
2017-04-29T00:01:49.225Z,11.44
2017-04-29T00:02:29.765Z,11.35
2017-04-29T00:03:10.211Z,11.39
2017-04-29T00:03:50.705Z,11.4
2017-04-29T00:04:31.243Z,11.37
2017-04-29T00:05:11.721Z,11.4
2017-04-29T00:05:52.173Z,11.46
2017-04-29T00:06:32.671Z,11.44
2017-04-29T00:07:13.158Z,11.42
2017-04-29T00:07:53.654Z,11.32
2017-04-29T00:08:34.174Z,11.36
2017-04-29T00:09:14.667Z,11.42
2017-04-29T00:09:55.170Z,11.47
2017-04-29T00:10:35.640Z,11.32
2017-04-29T00:11:16.172Z,11.27
2017-04-29T00:11:56.652Z,11.27
2017-04-29T00:12:37.139Z,11.29
2017-04-29T00:13:17.621Z,11.25
2017-04-29T00:13:58.138Z,11.35
2017-04-29T00:14:38.628Z,11.33
2017-04-29T00:15:19.102Z,11.35
2017-04-29T00:15:59.593Z,11.28
2017-04-29T00:16:40.108Z,11.25
2017-04-29T00:17:20.632Z,11.24
2017-04-29T00:18:01.132Z,11.24
2017-04-29T00:18:41.625Z,11.28
2017-04-29T00:19:22.120Z,11.32
2017-04-29T00:20:02.648Z,11.49
2017-04-29T00:20:43.134Z,11.39
2017-04-29T00:21:23.634Z,11.21
2017-04-29T00:22:04.157Z,11.18
2017-04-29T00:22:44.638Z,11.18
2017-04-29T00:23:25.115Z,11.17
2017-04-29T00:24:05.603Z,11.21
2017-04-29T00:24:46.110Z,11.18
2017-04-29T00:25:26.639Z,11.37
2017-04-29T00:26:07.173Z,11.37
2017-04-29T00:26:47.700Z,11.39
2017-04-29T00:27:28.192Z,11.44
2017-04-29T00:28:08.694Z,11.49
2017-04-29T00:28:49.156Z,11.51
2017-04-29T00:29:29.633Z,11.55
2017-04-29T00:30:10.158Z,11.46
2017-04-29T00:30:50.645Z,11.47
2017-04-29T00:31:31.168Z,11.47
2017-04-29T00:32:11.663Z,11.37
2017-04-29T00:32:52.198Z,11.37
2017-04-29T00:33:32.683Z,11.36
2017-04-29T00:34:13.195Z,11.43
2017-04-29T00:34:53.743Z,11.46
2017-04-29T00:35:34.218Z,11.44
2017-04-29T00:36:14.733Z,11.52
2017-04-29T00:36:55.263Z,11.44
2017-04-29T00:37:35.774Z,11.51
2017-04-29T00:38:16.301Z,11.4
2017-04-29T00:38:56.809Z,11.47
2017-04-29T00:39:37.332Z,11.37
2017-04-29T00:40:17.858Z,11.32
2017-04-29T00:40:58.373Z,11.19
2017-04-29T00:41:38.930Z,11.17
2017-04-29T00:42:19.447Z,11.18
2017-04-29T00:42:59.966Z,11.17
2017-04-29T00:43:40.483Z,11.15
2017-04-29T00:44:21.002Z,11.15
2017-04-29T00:45:01.529Z,11.21
2017-04-29T00:45:42.049Z,11.17
2017-04-29T00:46:22.570Z,11.18
2017-04-29T00:47:03.063Z,11.19
2017-04-29T00:47:43.596Z,11.18
2017-04-29T00:48:24.028Z,11.22
2017-04-29T00:49:04.514Z,11.19
2017-04-29T00:49:45.027Z,11.25
2017-04-29T00:50:25.509Z,11.33
2017-04-29T00:51:06.004Z,11.28
2017-04-29T00:51:46.508Z,11.15
2017-04-29T00:52:27.030Z,11.18
2017-04-29T00:53:07.541Z,11.17
2017-04-29T00:53:48.059Z,10.99
2017-04-29T00:54:28.608Z,11.07
2017-04-29T00:55:09.123Z,11.07
2017-04-29T00:56:47.016Z,11.04
2017-04-29T00:57:27.496Z,10.96
2017-04-29T00:58:08.026Z,11.07
2017-04-29T00:58:48.623Z,11.18
2017-04-29T00:59:29.142Z,11.21
2017-04-29T01:00:09.666Z,11.18
2017-04-29T01:00:50.198Z,11.18
2017-04-29T01:01:30.712Z,11.18
2017-04-29T01:02:11.251Z,11.19
2017-04-29T01:02:51.777Z,11.21
2017-04-29T01:03:32.296Z,11.21
2017-04-29T01:04:12.816Z,11.21
2017-04-29T01:04:53.326Z,11.21
2017-04-29T01:05:33.837Z,11.14
2017-04-29T01:06:14.367Z,11.17
2017-04-29T01:06:54.871Z,11.17
2017-04-29T01:07:35.382Z,11.21
2017-04-29T01:08:15.900Z,11.17
2017-04-29T01:08:56.412Z,11.27
2017-04-29T01:09:36.932Z,11.29
2017-04-29T01:10:17.458Z,11.27
2017-04-29T01:10:57.985Z,11.35
2017-04-29T01:11:38.513Z,11.25
2017-04-29T01:12:19.141Z,11.24
2017-04-29T01:12:59.671Z,11.33
2017-04-29T01:13:40.200Z,11.29
2017-04-29T01:14:20.731Z,11.35
2017-04-29T01:15:01.251Z,11.37
2017-04-29T01:15:41.771Z,11.42
2017-04-29T01:16:22.288Z,11.36
2017-04-29T01:17:02.803Z,11.39
2017-04-29T01:17:43.407Z,11.35
2017-04-29T01:18:23.843Z,11.36
2017-04-29T01:19:04.399Z,11.36
2017-04-29T01:19:44.923Z,11.33
2017-04-29T01:20:25.452Z,11.32
2017-04-29T01:21:05.969Z,11.33
2017-04-29T01:21:46.498Z,11.33
2017-04-29T01:22:27.026Z,11.32
2017-04-29T01:23:07.553Z,11.22
2017-04-29T01:23:48.058Z,11.18
2017-04-29T01:24:28.581Z,11.18
2017-04-29T01:25:09.094Z,11.17
2017-04-29T01:25:49.672Z,11.09
2017-04-29T01:26:30.132Z,11.1
2017-04-29T01:27:10.645Z,11.14
2017-04-29T01:27:51.173Z,11.1
2017-04-29T01:28:31.691Z,11.04
2017-04-29T01:29:12.198Z,11.06
2017-04-29T01:29:52.729Z,11.14
2017-04-29T01:30:33.240Z,11.19
2017-04-29T01:31:13.756Z,11.17
2017-04-29T01:31:54.272Z,11.15
2017-04-29T01:32:34.797Z,11.14
2017-04-29T01:33:15.310Z,11.27
2017-04-29T01:33:55.832Z,11.28
2017-04-29T01:34:36.345Z,11.22
2017-04-29T01:35:16.860Z,11.32
2017-04-29T01:35:57.373Z,11.39
2017-04-29T01:36:37.897Z,11.33
2017-04-29T01:37:18.429Z,11.4
2017-04-29T01:37:58.953Z,11.37
2017-04-29T01:38:39.482Z,11.27
2017-04-29T01:39:20.002Z,11.27
2017-04-29T01:40:00.531Z,11.29
2017-04-29T01:40:41.038Z,11.29
2017-04-29T01:41:21.556Z,11.27
2017-04-29T01:42:02.263Z,11.36
2017-04-29T01:42:42.790Z,11.29
2017-04-29T01:43:23.320Z,11.33
2017-04-29T01:44:03.832Z,11.33
2017-04-29T01:44:44.354Z,11.37
2017-04-29T01:45:24.879Z,11.4
2017-04-29T01:46:05.403Z,11.36
2017-04-29T01:46:45.906Z,11.33
2017-04-29T01:47:26.415Z,11.28
2017-04-29T01:48:06.929Z,11.29
2017-04-29T01:48:47.453Z,11.32
2017-04-29T01:49:27.957Z,11.33
2017-04-29T01:50:08.469Z,11.32
2017-04-29T01:50:48.962Z,11.4
2017-04-29T01:51:29.471Z,11.33
2017-04-29T01:52:09.990Z,11.27
2017-04-29T01:52:50.503Z,11.32
2017-04-29T01:53:31.039Z,11.19
2017-04-29T01:54:11.570Z,11.29
2017-04-29T01:54:52.091Z,11.22
2017-04-29T01:55:32.611Z,11.33
2017-04-29T01:56:13.141Z,11.28
2017-04-29T01:56:53.638Z,11.35
2017-04-29T01:57:34.171Z,11.29
2017-04-29T01:59:01.817Z,11.1
2017-04-29T01:59:42.338Z,11.11
2017-04-29T02:00:22.865Z,11.15
2017-04-29T02:01:03.381Z,11.15
2017-04-29T02:01:43.902Z,11.15
2017-04-29T02:02:24.419Z,11.22
2017-04-29T02:03:04.937Z,11.18
2017-04-29T02:03:45.448Z,11.21
2017-04-29T02:04:25.961Z,11.22
2017-04-29T02:05:06.495Z,11.17
2017-04-29T02:05:47.034Z,11.11
2017-04-29T02:06:27.554Z,11.04
2017-04-29T02:07:08.069Z,11.09
2017-04-29T02:07:48.605Z,11.09
2017-04-29T02:08:29.105Z,11.06
2017-04-29T02:09:09.628Z,11.11
2017-04-29T02:09:50.161Z,11.14
2017-04-29T02:10:30.696Z,11.18
2017-04-29T02:11:11.213Z,11.02
2017-04-29T02:11:51.756Z,10.99
2017-04-29T02:12:32.271Z,11.11
2017-04-29T02:13:12.782Z,11.09
2017-04-29T02:13:53.309Z,11
2017-04-29T02:14:33.839Z,11.06
2017-04-29T02:15:14.348Z,11.09
2017-04-29T02:15:54.860Z,11.17
2017-04-29T02:16:35.382Z,11.19
2017-04-29T02:17:15.903Z,11.24
2017-04-29T02:17:56.421Z,11.19
2017-04-29T02:18:36.957Z,11.19
2017-04-29T02:19:17.484Z,11.18
2017-04-29T02:19:58.003Z,11.15
2017-04-29T02:20:38.523Z,11.14
2017-04-29T02:21:19.044Z,11.04
2017-04-29T02:21:59.561Z,11.14
2017-04-29T02:22:40.082Z,11.11
2017-04-29T02:23:20.607Z,11.03
2017-04-29T02:24:01.111Z,11.11
2017-04-29T02:24:41.631Z,11.06
2017-04-29T02:25:22.167Z,11.03
2017-04-29T02:26:02.685Z,11.11
2017-04-29T02:26:43.204Z,11
2017-04-29T02:27:23.725Z,10.91
2017-04-29T02:28:04.248Z,11.02
2017-04-29T02:28:44.775Z,11.02
2017-04-29T02:29:25.293Z,10.92
2017-04-29T02:30:05.805Z,10.78
2017-04-29T02:30:46.325Z,10.91
2017-04-29T02:31:26.840Z,10.85
2017-04-29T02:32:07.346Z,10.82
2017-04-29T02:34:00.442Z,10.94
2017-04-29T02:34:40.959Z,10.81
2017-04-29T02:36:55.192Z,10.7
2017-04-29T02:37:35.713Z,10.63
2017-04-29T02:38:16.224Z,10.68
2017-04-29T02:38:56.751Z,10.61
2017-04-29T02:39:37.271Z,10.6
2017-04-29T02:40:17.775Z,10.79
2017-04-29T02:40:58.290Z,10.86
2017-04-29T02:41:38.791Z,10.78
2017-04-29T02:42:19.313Z,10.81
2017-04-29T02:42:59.838Z,10.85
2017-04-29T02:43:40.356Z,10.76
2017-04-29T02:44:20.887Z,10.71
2017-04-29T02:45:01.382Z,10.73
2017-04-29T02:45:42.407Z,10.67
2017-04-29T02:46:23.302Z,10.66
2017-04-29T02:47:03.819Z,10.66
2017-04-29T02:47:44.333Z,10.61
2017-04-29T02:48:24.849Z,10.68
2017-04-29T02:49:05.369Z,10.71
2017-04-29T02:49:45.895Z,10.6
2017-04-29T02:50:27.100Z,10.55
2017-04-29T02:51:07.621Z,10.59
2017-04-29T02:51:48.133Z,10.73
2017-04-29T02:52:28.654Z,10.82
2017-04-29T02:53:09.173Z,10.71
2017-04-29T02:53:49.687Z,10.66
2017-04-29T02:54:30.201Z,10.64
2017-04-29T02:55:10.721Z,10.61
2017-04-29T02:55:53.862Z,10.59
2017-04-29T02:56:34.366Z,10.7
2017-04-29T02:57:14.881Z,10.66
2017-04-29T02:57:55.377Z,10.71
2017-04-29T02:58:35.890Z,10.73
2017-04-29T02:59:16.410Z,10.61
2017-04-29T02:59:56.921Z,10.6
2017-04-29T03:00:37.450Z,10.55
2017-04-29T03:01:17.971Z,10.51
2017-04-29T03:01:58.485Z,10.52
2017-04-29T03:02:39.045Z,10.55
2017-04-29T03:03:19.531Z,10.52
2017-04-29T03:04:00.048Z,10.42
2017-04-29T03:04:40.563Z,10.56
2017-04-29T03:05:21.064Z,10.51
2017-04-29T03:06:01.581Z,10.66
2017-04-29T03:06:42.105Z,10.59
2017-04-29T03:07:22.618Z,10.59
2017-04-29T03:08:03.134Z,10.6
2017-04-29T03:08:43.646Z,10.61
2017-04-29T03:09:24.156Z,10.68
2017-04-29T03:10:04.678Z,10.74
2017-04-29T03:10:45.207Z,10.7
2017-04-29T03:11:25.741Z,10.74
2017-04-29T03:12:06.260Z,10.68
2017-04-29T03:12:46.785Z,10.63
2017-04-29T03:13:27.295Z,10.6
2017-04-29T03:14:07.815Z,10.53
2017-04-29T03:14:48.324Z,10.7
2017-04-29T03:15:28.840Z,10.47
2017-04-29T03:16:09.394Z,10.55
2017-04-29T03:16:49.944Z,10.6
2017-04-29T03:17:30.461Z,10.52
2017-04-29T03:18:10.982Z,10.36
2017-04-29T03:18:51.538Z,10.4
2017-04-29T03:19:32.055Z,10.56
2017-04-29T03:20:12.567Z,10.61
2017-04-29T03:20:53.087Z,10.67
2017-04-29T03:21:33.604Z,10.74
2017-04-29T03:22:14.119Z,10.64
2017-04-29T03:22:54.673Z,10.82
2017-04-29T03:23:35.159Z,10.74
2017-04-29T03:24:15.668Z,10.78
2017-04-29T03:24:56.184Z,10.74
2017-04-29T03:25:36.700Z,10.79
2017-04-29T03:26:17.207Z,10.78
2017-04-29T03:26:57.730Z,10.81
2017-04-29T03:27:38.240Z,10.81
2017-04-29T03:28:18.774Z,10.78
2017-04-29T03:28:59.256Z,10.81
2017-04-29T03:29:39.763Z,10.79
2017-04-29T03:30:20.281Z,10.85
2017-04-29T03:31:00.777Z,10.88
2017-04-29T03:31:41.277Z,10.94
2017-04-29T03:32:21.747Z,10.94
2017-04-29T03:33:02.221Z,10.97
2017-04-29T03:33:42.762Z,10.79
2017-04-29T03:34:23.255Z,10.91
2017-04-29T03:35:03.727Z,11.02
2017-04-29T03:35:44.245Z,10.99
2017-04-29T03:36:24.717Z,10.94
2017-04-29T03:37:05.204Z,10.89
2017-04-29T03:37:45.727Z,10.82
2017-04-29T03:38:26.247Z,10.86
2017-04-29T03:39:06.776Z,10.84
2017-04-29T03:39:47.278Z,10.7
2017-04-29T03:40:27.792Z,10.6
2017-04-29T03:41:08.317Z,10.41
2017-04-29T03:41:48.825Z,10.27
2017-04-29T03:42:29.352Z,10.36
2017-04-29T03:43:09.864Z,10.36
2017-04-29T03:43:50.395Z,10.38
2017-04-29T03:44:30.930Z,10.4
2017-04-29T03:45:11.452Z,10.27
2017-04-29T03:45:51.971Z,10.18
2017-04-29T03:46:32.501Z,10.2
2017-04-29T03:47:13.011Z,10.18
2017-04-29T03:47:53.532Z,9.96
2017-04-29T03:48:34.054Z,9.96
2017-04-29T03:49:14.556Z,9.99
2017-04-29T03:49:55.085Z,10.04
2017-04-29T03:50:35.579Z,10.04
2017-04-29T03:51:16.129Z,10.18
2017-04-29T03:51:56.645Z,10.07
2017-04-29T03:52:37.130Z,10.07
2017-04-29T03:53:17.645Z,9.94
2017-04-29T03:53:58.155Z,9.96
2017-04-29T03:54:38.683Z,9.87
2017-04-29T03:55:19.191Z,9.76
2017-04-29T03:55:59.710Z,9.87
2017-04-29T03:56:40.222Z,9.87
2017-04-29T03:57:20.744Z,9.75
2017-04-29T03:58:01.257Z,9.81
2017-04-29T03:58:41.758Z,9.86
2017-04-29T03:59:22.270Z,10.02
2017-04-29T04:00:02.811Z,9.96
2017-04-29T04:00:43.332Z,9.91
2017-04-29T04:01:23.846Z,9.96
2017-04-29T04:02:04.376Z,9.89
2017-04-29T04:02:44.896Z,9.81
2017-04-29T04:03:25.415Z,9.81
2017-04-29T04:04:05.939Z,9.75
2017-04-29T04:04:46.449Z,9.78
2017-04-29T04:05:26.976Z,9.84
2017-04-29T04:06:07.528Z,9.79
2017-04-29T04:06:48.018Z,9.84
2017-04-29T04:07:28.538Z,9.81
2017-04-29T04:08:09.029Z,9.84
2017-04-29T04:08:49.551Z,9.84
2017-04-29T04:09:30.057Z,9.75
2017-04-29T04:10:10.559Z,9.79
2017-04-29T04:10:51.077Z,9.83
2017-04-29T04:11:31.592Z,9.72
2017-04-29T04:12:12.126Z,9.79
2017-04-29T04:12:52.644Z,9.97
2017-04-29T04:13:33.181Z,9.93
2017-04-29T04:14:13.692Z,9.99
2017-04-29T04:14:54.198Z,10.07
2017-04-29T04:15:34.712Z,9.97
2017-04-29T04:16:15.230Z,10.07
2017-04-29T04:16:55.744Z,10.05
2017-04-29T04:17:36.265Z,10.07
2017-04-29T04:18:16.779Z,10.2
2017-04-29T04:18:57.335Z,10.15
2017-04-29T04:19:37.831Z,10.08
2017-04-29T04:20:18.341Z,10.04
2017-04-29T04:20:58.859Z,10.08
2017-04-29T04:21:39.373Z,10.08
2017-04-29T04:22:19.880Z,10.07
2017-04-29T04:23:00.394Z,9.99
2017-04-29T04:23:40.919Z,10.14
2017-04-29T04:24:21.429Z,10.05
2017-04-29T04:25:01.947Z,10.09
2017-04-29T04:25:42.443Z,10.02
2017-04-29T04:26:22.965Z,9.96
2017-04-29T04:27:03.489Z,10.02
2017-04-29T04:27:43.953Z,10.07
2017-04-29T04:28:24.480Z,10.18
2017-04-29T04:29:05.002Z,10.3
2017-04-29T04:29:45.525Z,10.32
2017-04-29T04:30:26.050Z,10.38
2017-04-29T04:31:06.564Z,10.3
2017-04-29T04:31:47.076Z,10.34
2017-04-29T04:32:27.574Z,10.48
2017-04-29T04:33:08.086Z,10.48
2017-04-29T04:33:48.581Z,10.48
2017-04-29T04:34:29.099Z,10.59
2017-04-29T04:35:09.611Z,10.66
2017-04-29T04:35:50.126Z,10.64
2017-04-29T04:36:30.616Z,10.63
2017-04-29T04:37:11.129Z,10.63
2017-04-29T04:37:51.641Z,10.73
2017-04-29T04:38:32.138Z,10.84
2017-04-29T04:39:12.654Z,10.81
2017-04-29T04:39:53.167Z,10.78
2017-04-29T04:40:33.682Z,10.88
2017-04-29T04:41:14.220Z,10.89
2017-04-29T04:41:54.711Z,10.78
2017-04-29T04:42:35.230Z,10.99
2017-04-29T04:43:15.751Z,10.97
2017-04-29T04:43:56.248Z,10.99
2017-04-29T04:44:36.771Z,10.99
2017-04-29T04:45:17.285Z,10.94
2017-04-29T04:45:58.493Z,10.91
2017-04-29T04:46:38.315Z,10.92
2017-04-29T04:47:18.828Z,10.88
2017-04-29T04:47:59.350Z,10.97
2017-04-29T04:48:39.866Z,10.94
2017-04-29T04:49:20.398Z,10.86
2017-04-29T04:50:00.925Z,10.97
2017-04-29T04:50:41.436Z,10.97
2017-04-29T04:51:21.940Z,10.97
2017-04-29T04:52:02.483Z,11
2017-04-29T04:52:43.006Z,10.99
2017-04-29T04:53:23.525Z,11.04
2017-04-29T04:54:04.049Z,10.96
2017-04-29T04:54:44.561Z,11.03
2017-04-29T04:55:25.097Z,11.11
2017-04-29T04:56:05.647Z,11.15
2017-04-29T04:56:46.159Z,11.18
2017-04-29T04:57:26.685Z,11.21
2017-04-29T04:59:24.915Z,11.1
2017-04-29T05:00:05.434Z,11.19
2017-04-29T05:00:45.957Z,11.24
2017-04-29T05:01:26.500Z,11.07
2017-04-29T05:02:07.038Z,11.18
2017-04-29T05:02:47.561Z,11.18
2017-04-29T05:03:28.083Z,11.32
2017-04-29T05:04:08.593Z,11.32
2017-04-29T05:04:49.113Z,11.32
2017-04-29T05:05:29.617Z,11.4
2017-04-29T05:06:10.130Z,11.49
2017-04-29T05:06:50.632Z,11.49
2017-04-29T05:07:31.148Z,11.33
2017-04-29T05:08:11.651Z,11.35
2017-04-29T05:08:52.167Z,11.37
2017-04-29T05:09:32.685Z,11.35
2017-04-29T05:10:13.185Z,11.25
2017-04-29T05:10:53.746Z,11.28
2017-04-29T05:11:34.219Z,11.35
2017-04-29T05:12:14.748Z,11.46
2017-04-29T05:12:55.260Z,11.33
2017-04-29T05:13:35.777Z,11.28
2017-04-29T05:14:16.356Z,11.36
2017-04-29T05:14:56.881Z,11.32
2017-04-29T05:15:37.409Z,11.42
2017-04-29T05:16:17.937Z,11.54
2017-04-29T05:16:58.458Z,11.51
2017-04-29T05:17:38.964Z,11.44
2017-04-29T05:18:19.483Z,11.51
2017-04-29T05:18:59.994Z,11.47
2017-04-29T05:19:40.510Z,11.49
2017-04-29T05:20:21.154Z,11.47
2017-04-29T05:21:01.651Z,11.61
2017-04-29T05:21:42.164Z,11.65
2017-04-29T05:22:22.701Z,11.67
2017-04-29T05:23:03.229Z,11.69
2017-04-29T05:23:43.713Z,11.67
2017-04-29T05:24:24.246Z,11.64
2017-04-29T05:25:04.762Z,11.73
2017-04-29T05:25:45.265Z,11.67
2017-04-29T05:26:25.791Z,11.76
2017-04-29T05:27:06.322Z,11.78
2017-04-29T05:27:46.833Z,11.8
2017-04-29T05:28:27.392Z,11.86
2017-04-29T05:29:07.854Z,11.88
2017-04-29T05:29:48.369Z,11.98
2017-04-29T05:30:28.889Z,11.94
2017-04-29T05:31:09.414Z,11.99
2017-04-29T05:31:49.908Z,12.02
2017-04-29T05:32:30.427Z,12.04
2017-04-29T05:33:10.942Z,12.09
2017-04-29T05:33:51.457Z,12.28
2017-04-29T05:34:31.976Z,12.28
2017-04-29T05:35:12.493Z,12.35
2017-04-29T05:35:52.989Z,12.35
2017-04-29T05:36:33.519Z,12.38
2017-04-29T05:37:14.102Z,12.52
2017-04-29T05:37:54.593Z,12.6
2017-04-29T05:38:35.104Z,12.65
2017-04-29T05:39:15.612Z,12.75
2017-04-29T05:39:56.110Z,12.89
2017-04-29T05:40:36.630Z,12.95
2017-04-29T05:41:17.130Z,12.96
2017-04-29T05:41:57.633Z,13.11
2017-04-29T05:42:38.148Z,13.03
2017-04-29T05:43:18.661Z,13.08
2017-04-29T05:43:59.183Z,13.22
2017-04-29T05:44:39.709Z,13.26
2017-04-29T05:45:20.226Z,13.36
2017-04-29T05:46:00.753Z,13.52
2017-04-29T05:46:41.307Z,13.36
2017-04-29T05:47:21.821Z,13.45
2017-04-29T05:48:02.328Z,13.54
2017-04-29T05:48:42.848Z,13.6
2017-04-29T05:49:23.356Z,13.57
2017-04-29T05:50:03.873Z,13.55
2017-04-29T05:50:44.363Z,13.55
2017-04-29T05:51:24.880Z,13.38
2017-04-29T05:52:05.413Z,13.33
2017-04-29T05:52:45.935Z,13.29
2017-04-29T05:53:26.442Z,13.14
2017-04-29T05:54:06.974Z,13.11
2017-04-29T05:54:47.490Z,12.96
2017-04-29T05:55:28.002Z,12.95
2017-04-29T05:56:08.522Z,12.93
2017-04-29T05:56:49.046Z,12.85
2017-04-29T05:57:29.589Z,12.82
2017-04-29T05:58:10.102Z,12.7
2017-04-29T05:58:50.617Z,12.68
2017-04-29T05:59:31.128Z,12.54
2017-04-29T06:00:11.644Z,12.64
2017-04-29T06:00:52.172Z,12.6
2017-04-29T06:01:32.688Z,12.53
2017-04-29T06:02:13.208Z,12.56
2017-04-29T06:02:53.729Z,12.57
2017-04-29T06:03:34.266Z,12.53
2017-04-29T06:04:14.773Z,12.53
2017-04-29T06:04:55.312Z,12.47
2017-04-29T06:05:35.834Z,12.28
2017-04-29T06:06:16.335Z,12.27
2017-04-29T06:06:56.843Z,12.37
2017-04-29T06:07:37.339Z,12.47
2017-04-29T06:08:17.923Z,12.64
2017-04-29T06:08:58.335Z,12.59
2017-04-29T06:09:38.801Z,12.59
2017-04-29T06:10:19.303Z,12.62
2017-04-29T06:10:59.797Z,12.6
2017-04-29T06:11:40.364Z,12.67
2017-04-29T06:12:20.829Z,12.64
2017-04-29T06:13:01.305Z,12.56
2017-04-29T06:13:41.840Z,12.67
2017-04-29T06:14:22.314Z,12.67
2017-04-29T06:15:02.950Z,12.65
2017-04-29T06:16:40.802Z,12.7
2017-04-29T06:17:21.357Z,12.75
2017-04-29T06:18:01.872Z,12.75
2017-04-29T06:18:42.379Z,12.82
2017-04-29T06:19:22.899Z,12.82
2017-04-29T06:20:03.411Z,12.77
2017-04-29T06:20:43.939Z,12.86
2017-04-29T06:21:24.457Z,12.75
2017-04-29T06:22:04.974Z,12.85
2017-04-29T06:22:45.492Z,12.89
2017-04-29T06:23:26.005Z,12.78
2017-04-29T06:24:06.547Z,12.97
2017-04-29T06:24:47.069Z,13.01
2017-04-29T06:25:27.588Z,13.1
2017-04-29T06:26:08.112Z,13.12
2017-04-29T06:26:48.598Z,13.26
2017-04-29T06:27:29.119Z,13.38
2017-04-29T06:28:09.643Z,13.42
2017-04-29T06:28:50.168Z,13.55
2017-04-29T06:29:30.740Z,13.57
2017-04-29T06:30:11.250Z,13.6
2017-04-29T06:30:51.777Z,13.66
2017-04-29T06:31:32.280Z,13.69
2017-04-29T06:32:12.773Z,13.63
2017-04-29T06:32:53.328Z,13.62
2017-04-29T06:33:33.821Z,13.55
2017-04-29T06:34:14.326Z,13.54
2017-04-29T06:34:54.833Z,13.55
2017-04-29T06:35:35.350Z,13.45
2017-04-29T06:36:15.858Z,13.45
2017-04-29T06:36:56.703Z,13.49
2017-04-29T06:37:37.113Z,13.57
2017-04-29T06:38:17.840Z,13.52
2017-04-29T06:38:58.201Z,13.59
2017-04-29T06:39:38.697Z,13.57
2017-04-29T06:40:19.195Z,13.55
2017-04-29T06:40:59.679Z,13.66
2017-04-29T06:41:40.211Z,13.71
2017-04-29T06:42:20.673Z,13.69
2017-04-29T06:43:01.173Z,13.78
2017-04-29T06:43:41.780Z,13.89
2017-04-29T06:44:22.145Z,13.85
2017-04-29T06:45:02.665Z,13.88
2017-04-29T06:45:43.167Z,13.87
2017-04-29T06:46:23.644Z,13.77
2017-04-29T06:47:04.110Z,13.85
2017-04-29T06:47:44.602Z,14.09
2017-04-29T06:48:25.082Z,14.29
2017-04-29T06:49:05.618Z,14.2
2017-04-29T06:49:46.129Z,14.37
2017-04-29T06:50:26.643Z,14.52
2017-04-29T06:51:07.099Z,14.58
2017-04-29T06:51:47.648Z,14.72
2017-04-29T06:52:28.096Z,14.8
2017-04-29T06:53:08.596Z,14.88
2017-04-29T06:53:49.081Z,14.91
2017-04-29T06:54:29.608Z,14.99
2017-04-29T06:55:10.096Z,14.95
2017-04-29T06:55:50.590Z,15.01
2017-04-29T06:56:31.084Z,14.89
2017-04-29T06:57:11.593Z,15.03
2017-04-29T06:57:52.091Z,15.1
2017-04-29T06:58:32.588Z,15.02
2017-04-29T06:59:13.085Z,15.13
2017-04-29T06:59:53.578Z,15.2
2017-04-29T07:00:34.079Z,15.2
2017-04-29T07:01:14.568Z,15.03
2017-04-29T07:01:55.089Z,15.1
2017-04-29T07:02:35.597Z,14.88
2017-04-29T07:03:16.080Z,14.94
2017-04-29T07:03:56.541Z,15.02
2017-04-29T07:04:37.114Z,15.07
2017-04-29T07:05:17.567Z,15.02
2017-04-29T07:05:58.077Z,15.03
2017-04-29T07:06:38.561Z,15.03
2017-04-29T07:07:19.071Z,15.06
2017-04-29T07:07:59.555Z,15.06
2017-04-29T07:09:47.118Z,15.02
2017-04-29T07:10:27.623Z,15.16
2017-04-29T07:11:08.144Z,15.25
2017-04-29T07:11:48.758Z,15.32
2017-04-29T07:12:29.223Z,15.29
2017-04-29T07:13:09.747Z,15.29
2017-04-29T07:13:50.282Z,15.29
2017-04-29T07:14:30.829Z,15.21
2017-04-29T07:15:11.338Z,15.29
2017-04-29T07:15:51.841Z,15.38
2017-04-29T07:16:32.353Z,15.39
2017-04-29T07:17:12.876Z,15.36
2017-04-29T07:17:53.405Z,15.53
2017-04-29T07:18:33.920Z,15.51
2017-04-29T07:19:14.433Z,15.25
2017-04-29T07:19:54.918Z,15.25
2017-04-29T07:20:35.486Z,15.27
2017-04-29T07:21:15.957Z,15.43
2017-04-29T07:21:56.458Z,15.38
2017-04-29T07:22:37.000Z,15.43
2017-04-29T07:23:17.508Z,15.5
2017-04-29T07:23:58.015Z,15.51
2017-04-29T07:24:38.530Z,15.53
2017-04-29T07:25:19.038Z,15.51
2017-04-29T07:25:59.562Z,15.51
2017-04-29T07:26:40.078Z,15.67
2017-04-29T07:27:20.599Z,15.62
2017-04-29T07:28:01.111Z,15.51
2017-04-29T07:28:41.632Z,15.57
2017-04-29T07:29:22.136Z,15.65
2017-04-29T07:30:02.648Z,15.76
2017-04-29T07:30:43.129Z,15.75
2017-04-29T07:31:23.670Z,15.89
2017-04-29T07:32:04.190Z,16.07
2017-04-29T07:32:44.759Z,16.07
2017-04-29T07:33:25.286Z,16.09
2017-04-29T07:34:05.816Z,16.01
2017-04-29T07:34:46.362Z,16.05
2017-04-29T07:35:26.919Z,16
2017-04-29T07:36:07.434Z,15.96
2017-04-29T07:36:47.962Z,15.82
2017-04-29T07:37:28.466Z,15.6
2017-04-29T07:38:08.992Z,15.72
2017-04-29T07:38:49.518Z,15.51
2017-04-29T07:39:30.048Z,15.65
2017-04-29T07:40:10.557Z,15.74
2017-04-29T07:41:58.363Z,15.74
2017-04-29T07:42:38.873Z,15.75
2017-04-29T07:43:19.396Z,15.69
2017-04-29T07:43:59.923Z,15.69
2017-04-29T07:44:40.448Z,15.65
2017-04-29T07:45:20.992Z,15.67
2017-04-29T07:46:01.528Z,15.65
2017-04-29T07:46:42.091Z,15.6
2017-04-29T07:47:22.602Z,15.67
2017-04-29T07:48:03.145Z,15.59
2017-04-29T07:48:43.655Z,15.6
2017-04-29T07:49:24.198Z,15.57
2017-04-29T07:50:04.723Z,15.51
2017-04-29T07:50:45.265Z,15.57
2017-04-29T07:51:25.771Z,15.49
2017-04-29T07:52:06.284Z,15.39
2017-04-29T07:52:46.845Z,15.25
2017-04-29T07:53:27.411Z,15.23
2017-04-29T07:54:07.936Z,15.28
2017-04-29T07:54:48.453Z,15.28
2017-04-29T07:55:29.007Z,15.46
2017-04-29T07:56:09.584Z,15.46
2017-04-29T07:56:50.109Z,15.49
2017-04-29T07:57:30.627Z,15.47
2017-04-29T07:58:11.147Z,15.46
2017-04-29T07:58:51.698Z,15.38
2017-04-29T07:59:32.230Z,15.46
2017-04-29T08:00:12.745Z,15.5
2017-04-29T08:00:53.271Z,15.62
2017-04-29T08:01:33.962Z,15.76
2017-04-29T08:02:14.400Z,15.78
2017-04-29T08:02:54.861Z,15.76
2017-04-29T08:03:35.371Z,15.76
2017-04-29T08:04:15.902Z,15.74
2017-04-29T08:04:56.383Z,15.86
2017-04-29T08:05:36.895Z,15.8
2017-04-29T08:06:17.436Z,15.82
2017-04-29T08:06:57.955Z,15.84
2017-04-29T08:07:38.485Z,15.84
2017-04-29T08:08:19.009Z,15.74
2017-04-29T08:08:59.547Z,15.67
2017-04-29T08:09:40.071Z,15.57
2017-04-29T08:10:20.600Z,15.34
2017-04-29T08:11:01.125Z,15.56
2017-04-29T08:11:41.666Z,15.57
2017-04-29T08:12:22.435Z,15.74
2017-04-29T08:13:02.771Z,15.75
2017-04-29T08:13:43.331Z,15.65
2017-04-29T08:14:23.855Z,15.76
2017-04-29T08:15:04.386Z,15.72
2017-04-29T08:15:44.915Z,15.78
2017-04-29T08:16:25.440Z,15.64
2017-04-29T08:17:06.013Z,15.67
2017-04-29T08:17:46.523Z,15.56
2017-04-29T08:18:27.021Z,15.6
2017-04-29T08:19:07.565Z,15.56
2017-04-29T08:19:48.078Z,15.5
2017-04-29T08:20:28.599Z,15.35
2017-04-29T08:21:09.150Z,15.39
2017-04-29T08:21:49.705Z,15.43
2017-04-29T08:22:30.235Z,15.38
2017-04-29T08:23:10.747Z,15.43
2017-04-29T08:24:58.793Z,15.65
2017-04-29T08:25:39.315Z,15.67
2017-04-29T08:26:19.950Z,15.74
2017-04-29T08:27:00.487Z,15.67
2017-04-29T08:27:41.013Z,15.74
2017-04-29T08:28:21.532Z,15.64
2017-04-29T08:29:02.129Z,15.69
2017-04-29T08:29:42.613Z,15.5
2017-04-29T08:30:23.117Z,15.38
2017-04-29T08:31:03.629Z,15.39
2017-04-29T08:31:44.163Z,15.44
2017-04-29T08:32:24.678Z,15.28
2017-04-29T08:33:05.233Z,15.2
2017-04-29T08:33:45.727Z,15.2
2017-04-29T08:34:26.265Z,15.13
2017-04-29T08:35:06.751Z,15.06
2017-04-29T08:35:47.291Z,14.99
2017-04-29T08:36:27.735Z,14.99
2017-04-29T08:37:08.276Z,14.94
2017-04-29T08:37:48.781Z,14.86
2017-04-29T08:38:29.533Z,14.88
2017-04-29T08:39:09.805Z,14.88
2017-04-29T08:39:50.339Z,14.89
2017-04-29T08:40:30.831Z,14.95
2017-04-29T08:41:11.336Z,15.07
2017-04-29T08:41:51.863Z,15.01
2017-04-29T08:42:32.400Z,15.02
2017-04-29T08:43:12.960Z,15.02
2017-04-29T08:43:53.429Z,15.1
2017-04-29T08:44:34.012Z,15.17
2017-04-29T08:45:14.525Z,15.2
2017-04-29T08:45:55.108Z,15.19
2017-04-29T08:46:35.629Z,15.27
2017-04-29T08:47:16.128Z,15.41
2017-04-29T08:47:56.804Z,15.47
2017-04-29T08:48:37.226Z,15.49
2017-04-29T08:49:17.734Z,15.59
2017-04-29T08:49:58.253Z,15.71
2017-04-29T08:50:38.841Z,15.8
2017-04-29T08:51:19.313Z,15.76
2017-04-29T08:51:59.842Z,15.74
2017-04-29T08:52:40.540Z,15.84
2017-04-29T08:53:21.191Z,16.05
2017-04-29T08:54:01.762Z,16.04
2017-04-29T08:54:42.196Z,15.93